Terminal Aerodrome Forecast
Issued by NWS Sterling, VA

Current Version | Previous Version | Graphics & Text | Print | Product List | Glossary On
Versions: 1 2 3 4 5 6 7 8 9 10 11 12 13 14
000
FTUS41 KLWX 152328
TAFMRB
TAF
KMRB 152328Z 1600/1624 00000KT P6SM OVC200
     FM161300 13007KT P6SM SCT200
     FM161600 14011G19KT P6SM SCT150
     FM162100 17009KT P6SM SCT050 BKN110=

USA.gov is the U.S. government's official web portal to all federal, state and local government web resources and services.